Time;durP1;ratioP1;P1;durP2;ratioP2;P2;SDS_P1;SDS_P2;PMS_P1;PMS_P2;Temp;Humidity;BMP_temperature;BMP_pressure;BME280_temperature;BME280_humidity;BME280_pressure;Samples;Min_cycle;Max_cycle;Signal;HPM_P1;HPM_P2
2021/06/01 00:01:16;;;;;;;;;6.00;6.00;;;;;25.73;26.97;100668.72;5002117;28;48025;-75
2021/06/01 00:03:41;;;;;;;;;7.00;7.00;;;;;25.72;27.14;100663.47;4984417;28;45446;-75
2021/06/01 00:06:07;;;;;;;;;4.25;4.25;;;;;25.70;26.89;100668.84;4985903;28;45168;-75
2021/06/01 00:08:32;;;;;;;;;5.50;5.50;;;;;25.68;26.73;100662.72;5003013;28;48215;-75
2021/06/01 00:10:58;;;;;;;;;5.25;5.25;;;;;25.70;27.26;100665.31;5002947;28;45213;-76
2021/06/01 00:13:23;;;;;;;;;7.00;7.00;;;;;25.70;26.84;100662.63;5002776;28;45238;-76
2021/06/01 00:15:49;;;;;;;;;5.00;5.00;;;;;25.67;27.17;100655.66;4981777;28;45376;-76
2021/06/01 00:18:14;;;;;;;;;4.75;4.75;;;;;25.65;27.10;100661.09;4977444;28;45435;-76
2021/06/01 00:20:40;;;;;;;;;6.75;6.00;;;;;25.63;27.24;100651.44;5001236;28;46590;-76
2021/06/01 00:23:05;;;;;;;;;7.00;5.75;;;;;25.63;27.26;100662.13;4965309;28;45425;-76
2021/06/01 00:25:31;;;;;;;;;7.00;7.00;;;;;25.63;27.07;100659.47;4983996;28;45378;-76
2021/06/01 00:27:56;;;;;;;;;8.00;7.00;;;;;25.61;27.34;100655.97;5002778;28;55081;-76
2021/06/01 00:30:22;;;;;;;;;7.75;7.00;;;;;25.60;27.36;100659.59;4965089;28;46963;-76
2021/06/01 00:32:47;;;;;;;;;5.25;5.25;;;;;25.58;27.68;100653.50;4976641;28;45339;-75
2021/06/01 00:35:13;;;;;;;;;7.25;7.25;;;;;25.56;27.24;100650.03;5001750;28;52005;-76
2021/06/01 00:37:38;;;;;;;;;7.00;7.00;;;;;25.54;27.37;100652.81;5001578;28;68807;-76
2021/06/01 00:40:04;;;;;;;;;7.00;7.00;;;;;25.54;27.15;100649.25;5002014;28;52471;-76
2021/06/01 00:42:30;;;;;;;;;6.50;6.50;;;;;25.51;27.58;100638.72;5002144;28;45249;-76
2021/06/01 00:44:55;;;;;;;;;5.25;5.25;;;;;25.52;27.37;100643.13;4984613;28;45317;-76
2021/06/01 00:47:21;;;;;;;;;6.50;6.50;;;;;25.48;27.94;100645.13;5001035;28;45365;-76
2021/06/01 00:49:46;;;;;;;;;8.00;8.00;;;;;25.47;27.90;100642.53;4964531;28;50546;-76
2021/06/01 00:52:12;;;;;;;;;7.75;6.25;;;;;25.46;27.92;100641.66;4996564;28;45187;-76
2021/06/01 00:54:37;;;;;;;;;7.25;6.25;;;;;25.43;27.82;100631.13;4981491;28;45260;-76
2021/06/01 00:57:03;;;;;;;;;10.75;8.75;;;;;25.44;27.39;100642.69;4975203;28;57872;-76
2021/06/01 00:59:28;;;;;;;;;7.50;6.50;;;;;25.41;27.96;100642.84;4980809;28;45552;-76
2021/06/01 01:01:53;;;;;;;;;6.25;6.25;;;;;25.40;28.16;100644.66;4975106;28;63491;-76
2021/06/01 01:04:19;;;;;;;;;6.00;6.00;;;;;25.35;28.01;100650.22;5002100;28;45753;-76
2021/06/01 01:07:00;;;;;;;;;8.00;6.00;;;;;25.34;27.72;100640.50;4980915;28;45512;-76
2021/06/01 01:09:27;;;;;;;;;9.25;9.00;;;;;25.35;27.81;100633.34;4985000;28;45427;-76
2021/06/01 01:11:55;;;;;;;;;8.00;7.25;;;;;25.34;27.77;100640.50;4981019;28;45385;-75
2021/06/01 01:14:35;;;;;;;;;7.00;6.00;;;;;25.33;27.90;100635.25;4980866;28;45454;-76
2021/06/01 01:17:09;;;;;;;;;6.75;5.50;;;;;25.31;28.16;100632.66;4980943;28;45277;-76
2021/06/01 01:20:07;;;;;;;;;7.75;7.00;;;;;25.28;27.85;100632.84;4983693;28;45874;-76
2021/06/01 01:22:34;;;;;;;;;10.00;6.75;;;;;25.23;28.70;100624.19;4947542;28;45266;-74
2021/06/01 01:25:25;;;;;;;;;6.50;6.50;;;;;25.24;28.61;100623.25;4983989;28;45219;-76
2021/06/01 01:28:18;;;;;;;;;8.00;6.00;;;;;25.24;28.31;100625.91;4987123;28;45435;-76
2021/06/01 01:30:45;;;;;;;;;5.50;5.50;;;;;25.22;28.22;100629.63;4980843;28;46399;-76
2021/06/01 01:33:36;;;;;;;;;7.00;6.25;;;;;25.22;28.13;100626.94;4963231;28;45298;-76
2021/06/01 01:36:03;;;;;;;;;7.50;7.00;;;;;25.18;28.07;100626.22;4980363;28;45315;-76
2021/06/01 01:38:29;;;;;;;;;6.75;6.75;;;;;25.20;28.49;100623.50;4982775;28;45718;-76
2021/06/01 01:40:59;;;;;;;;;5.50;5.50;;;;;25.20;28.49;100616.34;4964200;28;48273;-76
2021/06/01 01:43:27;;;;;;;;;5.00;5.00;;;;;25.20;27.72;100613.69;4983761;28;45275;-76
2021/06/01 01:46:01;;;;;;;;;6.50;6.50;;;;;25.20;28.28;100618.16;4980384;28;45533;-76
2021/06/01 01:51:11;;;;;;;;;6.00;5.50;;;;;25.17;28.10;100610.28;4986005;28;45294;-76
2021/06/01 01:53:56;;;;;;;;;6.00;6.00;;;;;25.15;28.10;100612.19;4979690;28;45348;-77
2021/06/01 01:56:24;;;;;;;;;5.50;5.50;;;;;25.15;28.56;100609.53;4986629;28;45351;-76
2021/06/01 01:58:50;;;;;;;;;7.00;6.00;;;;;25.14;28.06;100602.47;5007892;28;45542;-76
2021/06/01 02:01:16;;;;;;;;;6.25;6.00;;;;;25.13;28.53;100603.41;4988824;28;46263;-76
2021/06/01 02:03:42;;;;;;;;;5.75;5.75;;;;;25.11;28.66;100606.16;4987729;28;45194;-76
2021/06/01 02:06:08;;;;;;;;;6.00;6.00;;;;;25.11;28.40;100603.50;4999706;28;45650;-76
2021/06/01 02:08:34;;;;;;;;;6.50;5.50;;;;;25.09;28.52;100592.00;4983298;28;45930;-74
2021/06/01 02:10:59;;;;;;;;;6.00;5.00;;;;;25.04;29.02;100589.59;4999742;28;45383;-75
2021/06/01 02:13:28;;;;;;;;;6.75;6.75;;;;;25.04;28.62;100594.06;4982690;28;59602;-75
2021/06/01 02:15:54;;;;;;;;;7.00;6.75;;;;;25.01;28.23;100594.19;4983260;28;45251;-75
2021/06/01 02:18:19;;;;;;;;;5.75;5.75;;;;;25.02;28.61;100604.84;4983238;28;45741;-75
2021/06/01 02:20:46;;;;;;;;;5.50;5.50;;;;;25.01;28.49;100608.41;4998725;28;62081;-75
2021/06/01 02:26:12;;;;;;;;;8.00;6.00;;;;;24.99;28.89;100604.94;4980295;28;45436;-75
2021/06/01 02:28:45;;;;;;;;;6.25;6.25;;;;;24.99;28.42;100606.75;4980218;28;45370;-75
2021/06/01 02:31:14;;;;;;;;;5.25;5.25;;;;;24.99;28.13;100601.41;4979772;28;47216;-75
2021/06/01 02:33:42;;;;;;;;;6.75;6.75;;;;;24.96;28.72;100602.44;4981592;28;46168;-75
2021/06/01 02:36:08;;;;;;;;;7.25;6.00;;;;;24.97;28.76;100600.66;4979722;28;45252;-75
2021/06/01 02:38:33;;;;;;;;;5.75;5.75;;;;;24.95;28.62;100599.88;4998287;28;45313;-75
2021/06/01 02:41:00;;;;;;;;;6.75;6.00;;;;;24.94;28.37;100604.34;4979846;28;45437;-75
2021/06/01 02:43:26;;;;;;;;;5.25;5.00;;;;;24.92;28.57;100592.00;4969169;28;45478;-75
2021/06/01 02:45:51;;;;;;;;;6.00;5.50;;;;;24.91;28.61;100593.81;4962613;28;63509;-75
2021/06/01 02:48:18;;;;;;;;;6.25;6.00;;;;;24.91;28.58;100590.28;4981409;28;55632;-75
2021/06/01 02:50:44;;;;;;;;;5.50;5.50;;;;;24.92;28.84;100597.34;4981471;28;47226;-75
2021/06/01 02:53:11;;;;;;;;;7.00;7.00;;;;;24.90;28.80;100581.41;4966864;28;45443;-75
2021/06/01 02:55:36;;;;;;;;;7.25;6.25;;;;;24.89;28.95;100577.00;4966570;28;45276;-75
2021/06/01 02:58:02;;;;;;;;;6.00;6.00;;;;;24.89;28.72;100585.03;4966180;28;50261;-75
2021/06/01 03:00:27;;;;;;;;;7.00;7.00;;;;;24.86;29.20;100582.53;4979615;28;46329;-75
2021/06/01 03:02:53;;;;;;;;;8.50;7.50;;;;;24.86;29.16;100584.34;4997682;28;56441;-75
2021/06/01 03:05:19;;;;;;;;;5.25;5.00;;;;;24.82;29.19;100572.94;4978361;28;45322;-75
2021/06/01 03:07:51;;;;;;;;;7.25;5.00;;;;;24.83;29.49;100577.31;4981546;28;45487;-75
2021/06/01 03:10:17;;;;;;;;;5.00;5.00;;;;;24.83;29.42;100580.00;4979149;28;46131;-75
2021/06/01 03:12:49;;;;;;;;;7.00;5.25;;;;;24.82;29.23;100572.94;4986887;28;45238;-75
2021/06/01 03:15:15;;;;;;;;;8.50;8.00;;;;;24.83;28.95;100573.78;5000328;28;45365;-75
2021/06/01 03:17:41;;;;;;;;;6.25;6.25;;;;;24.79;29.86;100565.97;4979265;28;45592;-75
2021/06/01 03:20:06;;;;;;;;;6.75;6.00;;;;;24.81;28.84;100576.56;4976043;28;45551;-75
2021/06/01 03:22:32;;;;;;;;;7.00;6.00;;;;;24.78;29.55;100574.06;4979087;28;45446;-75
2021/06/01 03:24:58;;;;;;;;;7.00;7.00;;;;;24.77;29.30;100575.88;4976651;28;45304;-75
2021/06/01 03:27:23;;;;;;;;;6.50;5.00;;;;;24.73;29.22;100565.41;4999769;28;50626;-75
2021/06/01 03:29:48;;;;;;;;;6.75;6.00;;;;;24.74;29.41;100569.81;4999899;28;45220;-75
2021/06/01 03:32:14;;;;;;;;;7.00;6.50;;;;;24.71;29.44;100565.50;4979078;28;46872;-75
2021/06/01 03:34:40;;;;;;;;;7.00;5.50;;;;;24.69;29.50;100558.53;4975939;28;45344;-75
2021/06/01 03:37:05;;;;;;;;;7.75;6.00;;;;;24.69;29.44;100558.53;4999700;28;48334;-75
2021/06/01 03:39:32;;;;;;;;;7.25;6.00;;;;;24.68;28.97;100556.81;4979120;28;46531;-75
2021/06/01 03:41:57;;;;;;;;;6.50;5.75;;;;;24.66;29.59;100559.53;4966082;28;45407;-75
2021/06/01 03:44:23;;;;;;;;;6.00;6.00;;;;;24.65;29.57;100555.13;4982058;28;45353;-75
2021/06/01 03:46:49;;;;;;;;;6.25;6.25;;;;;24.64;29.19;100556.06;4978780;28;45460;-75
2021/06/01 03:49:14;;;;;;;;;7.50;6.75;;;;;24.66;29.50;100559.53;4975777;28;45477;-77
2021/06/01 03:51:40;;;;;;;;;7.50;7.50;;;;;24.63;29.60;100553.50;4976274;28;45587;-74
2021/06/01 03:54:06;;;;;;;;;6.75;6.00;;;;;24.63;29.71;100559.69;4976223;28;45454;-75
2021/06/01 03:56:34;;;;;;;;;7.00;7.00;;;;;24.63;29.43;100558.84;4978785;28;45563;-75
2021/06/01 03:58:59;;;;;;;;;6.25;6.25;;;;;24.60;29.64;100557.19;4976409;28;45426;-75
2021/06/01 04:01:25;;;;;;;;;6.75;6.50;;;;;24.60;29.85;100559.88;4982052;28;45275;-76
2021/06/01 04:03:51;;;;;;;;;7.75;6.75;;;;;24.60;29.18;100561.66;4998295;28;45401;-75
2021/06/01 04:06:16;;;;;;;;;5.75;5.75;;;;;24.60;29.54;100559.88;4978423;28;45475;-75
2021/06/01 04:08:41;;;;;;;;;9.25;8.75;;;;;24.55;29.75;100551.22;4976256;28;47956;-75
2021/06/01 04:11:07;;;;;;;;;5.00;5.00;;;;;24.61;29.79;100558.06;4965464;28;45342;-75
2021/06/01 04:13:33;;;;;;;;;7.00;7.00;;;;;24.59;29.74;100557.28;4965418;28;45553;-75
2021/06/01 04:15:58;;;;;;;;;6.75;6.25;;;;;24.60;29.67;100556.34;4978497;28;45382;-76
2021/06/01 04:18:24;;;;;;;;;6.75;6.75;;;;;24.60;29.75;100553.66;4962449;28;45393;-75
2021/06/01 04:20:49;;;;;;;;;6.00;6.00;;;;;24.60;29.38;100561.66;4981583;28;45508;-75
2021/06/01 04:23:15;;;;;;;;;7.00;5.00;;;;;24.58;29.88;100550.19;4962725;28;45489;-75
2021/06/01 04:25:40;;;;;;;;;4.00;4.00;;;;;24.57;29.92;100553.81;4981620;28;45340;-75
2021/06/01 04:28:06;;;;;;;;;7.50;5.50;;;;;24.57;29.88;100552.00;4995063;28;45379;-75
2021/06/01 04:30:32;;;;;;;;;7.00;7.00;;;;;24.56;29.93;100552.94;4981556;28;45308;-75
2021/06/01 04:32:57;;;;;;;;;6.75;5.75;;;;;24.52;30.18;100548.72;4962734;28;45208;-75
2021/06/01 04:35:23;;;;;;;;;7.25;6.75;;;;;24.50;30.13;100548.81;5000870;28;49560;-75
2021/06/01 04:37:49;;;;;;;;;6.75;6.75;;;;;24.50;30.21;100553.28;4982799;28;50270;-75
2021/06/01 04:40:15;;;;;;;;;7.75;7.75;;;;;24.46;29.93;100547.22;4965173;28;45485;-75
2021/06/01 04:42:41;;;;;;;;;7.25;6.50;;;;;24.46;30.33;100541.03;4962292;28;45294;-75
2021/06/01 04:45:07;;;;;;;;;6.75;6.75;;;;;24.45;29.98;100548.16;4968372;28;45503;-75
2021/06/01 04:47:33;;;;;;;;;6.25;5.50;;;;;24.43;30.08;100543.84;4981152;28;46376;-75
2021/06/01 04:49:58;;;;;;;;;6.00;6.00;;;;;24.41;29.95;100543.94;4967972;28;45327;-75
2021/06/01 04:52:24;;;;;;;;;8.75;8.75;;;;;24.39;29.88;100544.94;4961583;28;55060;-75
2021/06/01 04:55:10;;;;;;;;;;;;;;;;;;;;;
2021/06/01 04:57:50;;;;;;;;;8.75;8.75;;;;;24.36;30.23;100550.44;4982387;28;75811;-76
2021/06/01 05:00:26;;;;;;;;;8.50;8.50;;;;;24.18;30.67;100520.22;4980776;28;45286;-76
2021/06/01 05:02:54;;;;;;;;;7.50;7.00;;;;;24.24;30.00;100515.44;4984676;28;45503;-76
2021/06/01 05:05:19;;;;;;;;;10.00;8.75;;;;;24.16;30.44;100506.94;4964459;28;45551;-76
2021/06/01 05:07:45;;;;;;;;;7.75;7.75;;;;;24.30;30.71;100527.56;4966882;28;45364;-76
2021/06/01 05:10:11;;;;;;;;;9.25;7.00;;;;;24.33;30.91;100531.94;4980867;28;45412;-78
2021/06/01 05:12:36;;;;;;;;;9.25;7.50;;;;;24.30;31.26;100521.38;4967078;28;45442;-81
2021/06/01 05:15:02;;;;;;;;;9.00;6.50;;;;;24.39;30.88;100532.47;4964536;28;45282;-76
2021/06/01 05:17:28;;;;;;;;;7.50;7.00;;;;;24.32;30.88;100517.72;5014273;28;46343;-84
2021/06/01 05:19:54;;;;;;;;;7.75;6.50;;;;;24.28;30.63;100496.59;4983980;28;45279;-77
2021/06/01 05:22:19;;;;;;;;;8.25;8.25;;;;;24.41;30.31;100529.72;4982934;28;45190;-78
2021/06/01 05:24:44;;;;;;;;;9.25;7.00;;;;;24.41;30.62;100525.28;4977397;28;45594;-78
2021/06/01 05:27:13;;;;;;;;;6.50;5.75;;;;;24.40;31.36;100522.66;4984086;28;46213;-88
2021/06/01 05:29:43;;;;;;;;;7.50;7.00;;;;;24.35;31.21;100512.25;4959486;28;45287;-81
2021/06/01 05:32:51;;;;;;;;;10.00;7.25;;;;;24.43;30.77;100526.03;5001094;28;45301;-77
2021/06/01 05:35:04;;;;;;;;;6.25;5.50;;;;;24.44;31.48;100529.56;4985107;28;45220;-79
2021/06/01 05:37:33;;;;;;;;;6.75;6.75;;;;;24.52;33.05;100530.91;4983714;28;46697;-78
2021/06/01 05:39:59;;;;;;;;;7.50;7.50;;;;;24.60;33.97;100521.66;5000209;28;45310;-79
2021/06/01 05:42:28;;;;;;;;;11.00;9.00;;;;;24.65;33.14;100528.44;5001464;28;45776;-77
2021/06/01 05:44:53;;;;;;;;;7.75;7.25;;;;;24.63;33.05;100513.47;5000335;28;45423;-75
2021/06/01 05:47:18;;;;;;;;;11.00;7.50;;;;;24.72;32.84;100521.84;4995392;28;46966;-76
2021/06/01 05:49:44;;;;;;;;;8.00;7.00;;;;;24.78;31.38;100520.66;5003068;28;56973;-79
2021/06/01 05:52:09;;;;;;;;;7.00;7.00;;;;;24.75;31.37;100523.47;4981235;28;45242;-79
2021/06/01 05:54:36;;;;;;;;;8.00;8.00;;;;;24.77;32.91;100519.81;4980413;28;45444;-72
2021/06/01 05:57:01;;;;;;;;;10.00;10.00;;;;;24.80;32.08;100518.78;4974866;28;45396;-83
2021/06/01 05:59:26;;;;;;;;;12.50;11.00;;;;;24.79;31.95;100517.06;4980420;28;45342;-77
2021/06/01 06:01:52;;;;;;;;;11.50;8.75;;;;;24.78;34.08;100516.19;4974107;28;52189;-76
2021/06/01 06:04:20;;;;;;;;;12.25;10.50;;;;;24.84;33.50;100511.44;5000517;28;51355;-83
2021/06/01 06:06:46;;;;;;;;;11.50;9.75;;;;;24.93;33.87;100508.28;4980127;28;48501;-77
2021/06/01 06:09:15;;;;;;;;;11.75;10.25;;;;;25.00;32.89;100515.03;4997364;28;45197;-78
2021/06/01 06:11:43;;;;;;;;;11.00;10.25;;;;;25.01;31.83;100517.59;4980127;28;45371;-79
2021/06/01 06:14:09;;;;;;;;;11.75;11.00;;;;;25.01;31.05;100527.44;4981319;28;49407;-75
2021/06/01 06:16:58;;;;;;;;;9.75;9.50;;;;;24.98;31.29;100524.94;4994581;28;45350;-79
2021/06/01 06:19:23;;;;;;;;;8.00;8.00;;;;;24.92;31.11;100501.22;4983377;28;45239;-86
2021/06/01 06:21:49;;;;;;;;;8.50;8.00;;;;;24.97;31.47;100510.72;4980915;28;55276;-79
2021/06/01 06:24:14;;;;;;;;;8.00;8.00;;;;;25.02;31.34;100516.72;4983296;28;45405;-78
2021/06/01 06:26:40;;;;;;;;;10.25;7.50;;;;;25.05;31.07;100507.66;5001744;28;47765;-73
2021/06/01 06:29:09;;;;;;;;;8.00;8.00;;;;;25.06;30.90;100512.94;5001431;28;45244;-76
2021/06/01 06:31:34;;;;;;;;;8.75;8.75;;;;;25.02;30.14;100494.44;4981439;28;45391;-75
2021/06/01 06:34:15;;;;;;;;;8.75;8.75;;;;;25.12;30.23;100508.22;4999575;28;45297;-76
2021/06/01 06:36:40;;;;;;;;;8.00;8.00;;;;;25.10;30.12;100500.25;4983125;28;45281;-76
2021/06/01 06:39:09;;;;;;;;;9.50;9.00;;;;;25.12;29.55;100502.88;4982572;28;45364;-75
2021/06/01 06:41:35;;;;;;;;;9.50;9.00;;;;;25.04;30.18;100490.78;4999205;28;45372;-75
2021/06/01 06:44:02;;;;;;;;;7.25;7.25;;;;;25.12;29.99;100509.06;5000475;28;45245;-75
2021/06/01 06:46:30;;;;;;;;;7.00;7.00;;;;;25.15;29.65;100503.53;5000053;28;46185;-75
2021/06/01 06:48:56;;;;;;;;;7.25;6.00;;;;;25.14;29.94;100499.16;4983467;28;45164;-75
2021/06/01 06:51:23;;;;;;;;;9.25;7.75;;;;;25.20;29.81;100504.16;4978773;28;45608;-76
2021/06/01 06:53:52;;;;;;;;;7.00;7.00;;;;;25.26;30.11;100501.13;4998236;28;45511;-75
2021/06/01 06:56:21;;;;;;;;;8.00;7.50;;;;;25.28;29.80;100496.59;4988852;28;45398;-73
2021/06/01 06:58:46;;;;;;;;;8.50;8.50;;;;;25.29;29.85;100500.13;4975298;28;45809;-79
2021/06/01 07:01:12;;;;;;;;;7.25;7.00;;;;;25.28;29.94;100499.25;4981740;28;45502;-77
2021/06/01 07:03:37;;;;;;;;;9.25;9.25;;;;;25.34;29.90;100504.25;4979448;28;45459;-74
2021/06/01 07:06:03;;;;;;;;;7.25;6.00;;;;;25.35;29.10;100505.09;4982107;28;47022;-79
2021/06/01 07:08:29;;;;;;;;;8.75;7.25;;;;;25.32;29.25;100494.59;4979503;28;45780;-80
2021/06/01 07:10:54;;;;;;;;;7.00;7.00;;;;;25.35;29.05;100500.63;4970084;28;45381;-79
2021/06/01 07:13:20;;;;;;;;;8.25;8.25;;;;;25.32;29.46;100498.13;5004659;28;50797;-77
2021/06/01 07:15:47;;;;;;;;;7.75;7.75;;;;;25.37;29.28;100495.22;4966551;28;47251;-78
2021/06/01 07:18:14;;;;;;;;;11.00;8.75;;;;;25.40;29.57;100497.72;4985139;28;45414;-78
2021/06/01 07:20:39;;;;;;;;;9.00;7.00;;;;;25.42;29.63;100490.47;4980035;28;45295;-80
2021/06/01 07:23:05;;;;;;;;;9.75;8.00;;;;;25.45;29.66;100494.75;4974292;28;45647;-78
2021/06/01 07:25:30;;;;;;;;;9.25;8.00;;;;;25.48;29.05;100484.78;4978674;28;46125;-77
2021/06/01 07:27:56;;;;;;;;;8.00;7.25;;;;;25.47;28.93;100477.72;4961641;28;45878;-77
2021/06/01 07:30:21;;;;;;;;;8.25;7.50;;;;;25.53;29.92;100482.69;4968468;28;45796;-76
2021/06/01 07:32:47;;;;;;;;;9.25;9.25;;;;;25.58;30.34;100477.97;4985896;28;45524;-79
2021/06/01 07:35:12;;;;;;;;;10.00;8.75;;;;;25.65;30.09;100478.47;4964103;28;45985;-78
2021/06/01 07:37:38;;;;;;;;;9.25;8.00;;;;;25.67;30.19;100463.19;4955107;28;45719;-77
2021/06/01 07:40:04;;;;;;;;;7.00;7.00;;;;;25.78;29.98;100473.31;4986759;28;45399;-77
2021/06/01 07:42:30;;;;;;;;;9.00;8.25;;;;;25.79;29.33;100473.19;4984923;28;45479;-77
2021/06/01 07:44:55;;;;;;;;;11.00;9.00;;;;;25.82;29.99;100475.72;4978425;28;46657;-77
2021/06/01 07:47:21;;;;;;;;;10.25;9.50;;;;;25.86;29.90;100473.72;4971764;28;45460;-77
2021/06/01 07:49:46;;;;;;;;;9.25;7.25;;;;;25.84;29.99;100464.94;4983228;28;45429;-78
2021/06/01 07:52:12;;;;;;;;;9.25;7.50;;;;;25.88;29.45;100477.16;4987469;28;45565;-79
2021/06/01 07:54:37;;;;;;;;;10.50;10.00;;;;;25.82;29.46;100481.06;4988792;28;47461;-74
2021/06/01 07:57:03;;;;;;;;;8.00;7.00;;;;;25.72;29.76;100479.88;4968476;28;45424;-79
2021/06/01 07:59:28;;;;;;;;;11.75;8.50;;;;;25.69;29.96;100472.00;5002624;28;45395;-77
2021/06/01 08:01:54;;;;;;;;;9.50;9.25;;;;;25.77;29.63;100468.91;4969149;28;45704;-84
2021/06/01 08:04:19;;;;;;;;;11.50;9.25;;;;;25.84;29.93;100464.94;4992300;28;60635;-83
2021/06/01 08:06:45;;;;;;;;;8.50;8.50;;;;;25.85;29.40;100461.31;5000626;28;56067;-80
2021/06/01 08:09:10;;;;;;;;;10.25;9.00;;;;;25.70;29.40;100454.13;4981466;28;45409;-78
2021/06/01 08:11:36;;;;;;;;;8.50;8.50;;;;;25.64;29.73;100425.97;4980610;28;52542;-83
2021/06/01 08:14:01;;;;;;;;;10.50;8.50;;;;;25.82;29.38;100446.31;5007296;28;46774;-86
2021/06/01 08:16:27;;;;;;;;;8.50;8.50;;;;;25.89;29.79;100438.78;4996296;28;45801;-82
2021/06/01 08:24:14;;;;;;;;;12.25;9.50;;;;;27.46;28.47;100430.81;4985960;28;45394;-87
2021/06/01 08:26:39;;;;;;;;;9.00;9.00;;;;;28.14;27.93;100426.16;4988290;28;45913;-85
2021/06/01 08:29:04;;;;;;;;;12.00;10.25;;;;;28.73;27.55;100418.44;4969749;28;45759;-86
2021/06/01 08:31:30;;;;;;;;;10.25;9.00;;;;;29.25;26.48;100425.44;4993017;28;51743;-86
2021/06/01 08:33:56;;;;;;;;;9.75;9.75;;;;;29.73;25.93;100419.25;4967892;28;46741;-87
2021/06/01 08:36:21;;;;;;;;;9.50;8.50;;;;;30.11;25.45;100425.25;4991225;28;45393;-87
2021/06/01 08:38:46;;;;;;;;;9.75;8.50;;;;;30.42;25.27;100422.03;4969474;28;45330;-88
2021/06/01 08:41:16;;;;;;;;;10.00;9.00;;;;;30.57;24.29;100415.41;4979735;28;47175;-81
2021/06/01 08:43:42;;;;;;;;;9.00;8.50;;;;;30.69;25.12;100429.78;4999458;28;46707;-81
2021/06/01 08:46:09;;;;;;;;;11.25;9.50;;;;;30.85;24.53;100420.34;5007974;28;45775;-80
2021/06/01 08:48:35;;;;;;;;;8.75;8.75;;;;;31.11;23.91;100417.38;4981595;28;45510;-90
2021/06/01 08:51:00;;;;;;;;;10.25;9.75;;;;;31.36;24.13;100413.53;4963385;28;45766;-87
2021/06/01 08:53:26;;;;;;;;;10.00;8.75;;;;;31.63;23.73;100421.19;4982042;28;47082;-84
2021/06/01 08:55:51;;;;;;;;;9.50;8.75;;;;;31.88;23.42;100419.97;4999172;28;45375;-86
2021/06/01 08:58:21;;;;;;;;;9.00;8.25;;;;;32.10;23.06;100419.00;4998783;28;45480;-85
2021/06/01 09:00:47;;;;;;;;;7.75;7.25;;;;;32.27;23.10;100423.81;5008631;28;45415;-85
2021/06/01 09:03:15;;;;;;;;;8.50;8.00;;;;;32.25;23.00;100421.25;4992496;28;47396;-86
2021/06/01 09:08:46;;;;;;;;;9.00;8.25;;;;;30.73;23.78;100410.53;4991277;28;45486;-83
2021/06/01 09:11:32;;;;;;;;;8.75;7.50;;;;;30.08;23.53;100419.28;4968499;28;45358;-82
2021/06/01 09:22:29;;;;;;;;;11.00;10.00;;;;;28.69;25.92;100411.59;5016026;22;46363;-80
2021/06/01 09:25:03;;;;;;;;;9.25;9.25;;;;;28.54;26.19;100404.63;5016296;28;46045;-78
2021/06/01 09:27:31;;;;;;;;;11.75;10.50;;;;;28.43;25.73;100396.47;5016219;28;45570;-79
2021/06/01 09:29:57;;;;;;;;;7.00;7.00;;;;;28.34;26.34;100406.03;5018158;28;45487;-79
2021/06/01 09:32:23;;;;;;;;;8.00;8.00;;;;;28.26;25.81;100402.13;4975969;28;45575;-80
2021/06/01 09:34:54;;;;;;;;;8.00;7.25;;;;;28.22;26.41;100406.00;4988861;28;45867;-78
2021/06/01 09:37:27;;;;;;;;;7.00;7.00;;;;;28.19;27.01;100396.34;4999070;28;45572;-79
2021/06/01 09:40:09;;;;;;;;;8.75;6.25;;;;;28.14;26.58;100388.59;5000538;28;45579;-81
2021/06/01 09:42:36;;;;;;;;;9.00;9.00;;;;;28.12;27.27;100389.66;4986776;28;45354;-80
2021/06/01 09:45:21;;;;;;;;;9.00;9.00;;;;;28.06;27.17;100382.94;4969945;28;47765;-80
2021/06/01 09:47:56;;;;;;;;;8.00;8.00;;;;;28.04;26.66;100379.47;4980375;28;45534;-80
2021/06/01 09:53:11;;;;;;;;;8.75;8.00;;;;;27.97;26.78;100377.31;5004157;28;45281;-80
2021/06/01 09:55:47;;;;;;;;;9.00;9.00;;;;;28.00;26.67;100391.38;4998263;28;46815;-79
2021/06/01 09:58:15;;;;;;;;;8.75;7.75;;;;;28.01;26.57;100392.25;5012505;28;45466;-78
2021/06/01 10:00:41;;;;;;;;;11.50;9.00;;;;;28.02;27.24;100384.09;4984728;28;45825;-78
2021/06/01 10:03:22;;;;;;;;;9.00;7.00;;;;;28.01;27.32;100387.75;4996291;28;45508;-79
2021/06/01 10:05:48;;;;;;;;;10.25;10.25;;;;;27.95;27.77;100385.47;5002422;28;46117;-84
2021/06/01 10:08:15;;;;;;;;;8.25;8.25;;;;;27.91;28.09;100388.47;5002874;28;45390;-80
2021/06/01 10:10:49;;;;;;;;;9.25;7.25;;;;;27.84;27.62;100394.25;5002765;28;45554;-76
2021/06/01 10:13:14;;;;;;;;;10.25;9.00;;;;;27.78;26.96;100388.44;4993338;28;45380;-75
2021/06/01 10:15:39;;;;;;;;;10.25;8.50;;;;;27.73;27.52;100371.81;4987244;28;45445;-75
2021/06/01 10:18:10;;;;;;;;;9.25;8.25;;;;;27.71;27.47;100376.41;5002785;28;45385;-79
2021/06/01 10:20:36;;;;;;;;;8.50;7.50;;;;;27.68;27.76;100363.22;4980084;28;45387;-74
2021/06/01 10:23:03;;;;;;;;;8.75;8.75;;;;;27.65;27.37;100363.41;4990719;28;45462;-77
2021/06/01 10:25:28;;;;;;;;;9.75;7.00;;;;;27.61;27.24;100366.28;4968294;28;47045;-77
2021/06/01 10:28:01;;;;;;;;;8.50;7.00;;;;;27.59;27.45;100357.47;4990304;28;45460;-79
2021/06/01 10:30:30;;;;;;;;;7.25;7.25;;;;;27.57;28.12;100351.38;5006107;28;45622;-81
2021/06/01 10:32:58;;;;;;;;;10.00;9.00;;;;;27.54;28.16;100350.69;4999742;28;45543;-79
2021/06/01 10:35:24;;;;;;;;;9.25;8.50;;;;;27.56;28.63;100355.03;4982786;28;46162;-77
2021/06/01 10:51:27;;;;;;;;;8.00;7.50;;;;;27.49;28.67;100329.59;5002647;28;45363;-79
2021/06/01 10:53:52;;;;;;;;;10.00;9.75;;;;;27.49;29.80;100329.59;5011057;28;45448;-78
2021/06/01 10:56:18;;;;;;;;;7.50;7.50;;;;;27.48;29.31;100327.88;4985215;28;46185;-79
2021/06/01 10:58:45;;;;;;;;;9.25;9.00;;;;;27.50;29.31;100333.97;4995202;28;45336;-78
2021/06/01 11:04:20;;;;;;;;;6.50;6.50;;;;;27.48;29.32;100343.09;5000027;28;45345;-78
2021/06/01 11:06:49;;;;;;;;;10.50;8.50;;;;;27.45;28.68;100332.56;4975583;28;47061;-78
2021/06/01 11:09:33;;;;;;;;;9.75;8.00;;;;;27.45;28.76;100343.28;4991084;28;45311;-78
2021/06/01 11:11:59;;;;;;;;;9.25;9.25;;;;;27.43;28.87;100329.13;4982311;28;45450;-78
2021/06/01 11:14:29;;;;;;;;;8.00;8.00;;;;;27.43;28.61;100326.44;4982746;28;45415;-78
2021/06/01 11:16:56;;;;;;;;;8.75;8.00;;;;;27.41;28.50;100328.38;4999860;28;46406;-78
2021/06/01 11:19:24;;;;;;;;;9.00;7.00;;;;;27.43;28.48;100331.81;4975656;28;45643;-78
2021/06/01 11:22:03;;;;;;;;;8.25;7.50;;;;;27.39;28.03;100315.09;4985065;28;45425;-78
2021/06/01 11:35:30;;;;;;;;;10.25;9.50;;;;;27.39;28.85;100308.88;4980748;28;45377;-76
2021/06/01 11:43:10;;;;;;;;;8.50;8.00;;;;;27.40;29.17;100298.03;4986684;28;45322;-78
2021/06/01 11:45:42;;;;;;;;;9.50;9.00;;;;;27.42;29.61;100298.78;4983975;28;45523;-78
2021/06/01 11:50:58;;;;;;;;;8.25;8.25;;;;;27.43;30.09;100281.75;4985786;28;47124;-78
2021/06/01 11:53:48;;;;;;;;;8.75;8.00;;;;;27.50;29.31;100292.91;4988449;28;45351;-78
2021/06/01 11:56:14;;;;;;;;;7.50;6.25;;;;;27.49;29.20;100278.66;4998331;28;45699;-78
2021/06/01 12:20:50;;;;;;;;;9.00;9.00;;;;;27.44;28.41;100286.13;4970210;28;1122489;-78
2021/06/01 12:23:24;;;;;;;;;12.50;11.75;;;;;27.42;28.25;100280.03;5000487;28;45393;-78
2021/06/01 12:32:08;;;;;;;;;7.00;7.00;;;;;27.40;28.56;100279.28;5000469;28;45406;-77
2021/06/01 12:34:56;;;;;;;;;9.75;8.75;;;;;27.39;27.90;100279.41;5001561;28;45405;-80
2021/06/01 13:14:52;;;;;;;;;5.00;5.00;;;;;27.38;27.78;100254.41;4991484;28;45672;-75
2021/06/01 13:31:45;;;;;;;;;8.00;8.00;;;;;27.45;28.85;100249.47;4990138;28;45405;-76
2021/06/01 13:39:56;;;;;;;;;6.25;6.25;;;;;27.47;28.40;100226.97;4980236;28;45974;-74
2021/06/01 13:48:28;;;;;;;;;7.50;7.50;;;;;27.50;28.61;100226.75;5002718;28;45480;-74
2021/06/01 13:55:58;;;;;;;;;7.25;7.25;;;;;27.53;28.89;100220.31;5008443;28;45649;-77
2021/06/01 14:54:45;;;;;;;;;8.75;7.00;;;;;27.73;30.23;100200.22;5001783;28;45310;-78
2021/06/01 15:10:31;;;;;;;;;8.00;7.00;;;;;27.80;28.55;100190.72;5012395;28;45408;-79
2021/06/01 15:24:42;;;;;;;;;8.50;7.50;;;;;27.84;28.17;100189.56;4994196;28;45436;-77
2021/06/01 15:29:56;;;;;;;;;7.00;7.00;;;;;27.87;29.12;100183.97;4998890;28;45616;-77